createdAt,value
2022-11-26T00:01:01.121Z,3.65
2022-11-26T00:03:27.738Z,5.28
2022-11-26T00:05:57.261Z,3.92
2022-11-26T00:08:28.302Z,3.95
2022-11-26T00:10:55.197Z,4.85
2022-11-26T00:13:25.542Z,5.90
2022-11-26T00:15:52.605Z,5.18
2022-11-26T00:18:19.826Z,4.75
2022-11-26T00:20:50.871Z,6.28
2022-11-26T00:23:21.367Z,5.77
2022-11-26T00:25:50.364Z,4.72
2022-11-26T00:28:28.608Z,4.60
2022-11-26T00:30:56.882Z,5.10
2022-11-26T00:33:24.045Z,5.10
2022-11-26T00:35:53.968Z,4.25
2022-11-26T00:38:21.751Z,4.68
2022-11-26T00:40:48.392Z,3.97
2022-11-26T00:43:17.240Z,3.58
2022-11-26T00:45:45.509Z,3.10
2022-11-26T00:48:12.512Z,3.20
2022-11-26T00:50:42.788Z,4.20
2022-11-26T00:53:12.918Z,3.72
2022-11-26T00:55:41.583Z,4.57
2022-11-26T00:58:20.518Z,4.05
2022-11-26T01:00:48.512Z,4.00
2022-11-26T01:03:15.249Z,3.95
2022-11-26T01:05:41.834Z,3.50
2022-11-26T01:08:18.801Z,3.30
2022-11-26T01:10:45.727Z,4.45
2022-11-26T01:13:12.242Z,4.20
2022-11-26T01:15:38.814Z,4.10
2022-11-26T01:18:12.930Z,4.40
2022-11-26T01:20:40.142Z,3.30
2022-11-26T01:23:09.949Z,5.57
2022-11-26T01:25:36.694Z,2.97
2022-11-26T01:28:03.876Z,2.88
2022-11-26T01:30:33.139Z,4.03
2022-11-26T01:32:59.794Z,4.30
2022-11-26T01:35:28.241Z,4.40
2022-11-26T01:37:55.146Z,4.38
2022-11-26T01:40:48.704Z,5.20
2022-11-26T01:43:20.561Z,4.10
2022-11-26T01:45:47.171Z,4.15
2022-11-26T01:48:24.702Z,4.00
2022-11-26T01:50:57.163Z,4.00
2022-11-26T01:53:32.525Z,4.10
2022-11-26T01:56:02.053Z,4.18
2022-11-26T01:58:39.500Z,3.83
2022-11-26T02:01:06.979Z,4.18
2022-11-26T02:03:40.162Z,4.93
2022-11-26T02:06:13.966Z,4.20
2022-11-26T02:08:41.258Z,4.10
2022-11-26T02:11:25.620Z,4.55
2022-11-26T02:13:55.917Z,4.00
2022-11-26T02:16:45.023Z,4.22
2022-11-26T02:19:42.789Z,3.67
2022-11-26T02:22:32.353Z,3.65
2022-11-26T02:25:09.822Z,3.20
2022-11-26T02:28:03.545Z,3.33
2022-11-26T02:30:35.378Z,3.88
2022-11-26T02:33:07.644Z,3.22
2022-11-26T02:35:41.439Z,4.07
2022-11-26T02:38:11.534Z,4.45
2022-11-26T02:40:38.077Z,4.78
2022-11-26T02:43:04.917Z,5.47
2022-11-26T02:45:36.931Z,4.18
2022-11-26T02:48:07.666Z,4.57
2022-11-26T02:50:37.938Z,3.25
2022-11-26T02:53:05.618Z,3.47
2022-11-26T02:55:35.587Z,3.53
2022-11-26T02:58:02.501Z,4.53
2022-11-26T03:00:31.257Z,4.00
2022-11-26T03:03:04.798Z,4.18
2022-11-26T03:05:35.883Z,4.32
2022-11-26T03:08:04.639Z,4.90
2022-11-26T03:10:32.378Z,3.63
2022-11-26T03:12:59.505Z,3.70
2022-11-26T03:15:26.288Z,4.15
2022-11-26T03:17:52.887Z,4.28
2022-11-26T03:20:20.832Z,3.65
2022-11-26T03:22:47.453Z,3.60
2022-11-26T03:25:14.389Z,4.28
2022-11-26T03:27:40.969Z,5.10
2022-11-26T03:30:08.831Z,3.67
2022-11-26T03:32:35.732Z,3.88
2022-11-26T03:35:02.750Z,3.50
2022-11-26T03:37:30.720Z,3.65
2022-11-26T03:39:57.955Z,4.40
2022-11-26T03:42:24.609Z,3.35
2022-11-26T03:44:51.380Z,2.97
2022-11-26T03:47:18.059Z,3.88
2022-11-26T03:49:44.717Z,4.60
2022-11-26T03:52:11.461Z,4.38
2022-11-26T03:54:40.011Z,5.00
2022-11-26T03:57:07.288Z,4.53
2022-11-26T03:59:33.838Z,4.35
2022-11-26T04:02:01.151Z,4.05
2022-11-26T04:04:27.774Z,3.90
2022-11-26T04:06:54.895Z,3.65
2022-11-26T04:09:21.621Z,3.60
2022-11-26T04:11:49.606Z,3.60
2022-11-26T04:14:16.421Z,4.15
2022-11-26T04:16:43.053Z,4.03
2022-11-26T04:19:09.943Z,4.05
2022-11-26T04:21:36.660Z,3.78
2022-11-26T04:24:03.606Z,3.50
2022-11-26T04:26:30.441Z,3.38
2022-11-26T04:28:58.693Z,3.80
2022-11-26T04:31:26.110Z,4.25
2022-11-26T04:33:53.145Z,3.95
2022-11-26T04:36:19.773Z,3.90
2022-11-26T04:38:46.350Z,3.92
2022-11-26T04:41:12.955Z,3.70
2022-11-26T04:43:39.493Z,4.38
2022-11-26T04:46:07.591Z,3.38
2022-11-26T04:48:35.718Z,3.83
2022-11-26T04:51:02.305Z,3.97
2022-11-26T04:53:29.385Z,4.38
2022-11-26T04:55:56.018Z,5.65
2022-11-26T04:58:23.643Z,5.22
2022-11-26T05:00:51.596Z,3.72
2022-11-26T05:03:19.975Z,3.70
2022-11-26T05:05:46.774Z,3.42
2022-11-26T05:08:13.360Z,4.00
2022-11-26T05:10:40.058Z,4.28
2022-11-26T05:13:06.750Z,6.70
2022-11-26T05:15:33.592Z,6.47
2022-11-26T05:18:00.114Z,4.40
2022-11-26T05:20:28.270Z,4.22
2022-11-26T05:22:57.993Z,4.13
2022-11-26T05:25:24.936Z,4.35
2022-11-26T05:27:51.589Z,4.30
2022-11-26T05:30:18.835Z,3.97
2022-11-26T05:32:45.721Z,4.70
2022-11-26T05:35:13.888Z,4.38
2022-11-26T05:37:42.150Z,3.90
2022-11-26T05:40:10.032Z,4.65
2022-11-26T05:42:36.593Z,5.28
2022-11-26T05:45:04.329Z,4.55
2022-11-26T05:47:32.514Z,4.93
2022-11-26T05:50:00.648Z,5.65
2022-11-26T05:52:29.521Z,5.13
2022-11-26T05:54:58.653Z,6.53
2022-11-26T05:57:28.496Z,7.05
2022-11-26T05:59:55.363Z,6.18
2022-11-26T06:02:24.144Z,4.80
2022-11-26T06:04:51.516Z,5.78
2022-11-26T06:07:18.135Z,4.72
2022-11-26T06:09:45.025Z,4.50
2022-11-26T06:12:13.088Z,4.95
2022-11-26T06:14:43.099Z,5.03
2022-11-26T06:17:10.443Z,7.72
2022-11-26T06:19:37.061Z,6.35
2022-11-26T06:22:03.982Z,6.32
2022-11-26T06:24:30.554Z,5.55
2022-11-26T06:26:57.112Z,5.95
2022-11-26T06:29:28.131Z,4.95
2022-11-26T06:31:56.544Z,5.40
2022-11-26T06:34:25.012Z,4.82
2022-11-26T06:36:52.265Z,4.80
2022-11-26T06:39:18.829Z,4.60
2022-11-26T06:41:45.731Z,5.18
2022-11-26T06:44:13.538Z,4.20
2022-11-26T06:46:41.490Z,4.90
2022-11-26T06:49:08.072Z,4.40
2022-11-26T06:51:34.631Z,4.15
2022-11-26T06:54:01.200Z,5.28
2022-11-26T06:56:28.153Z,5.60
2022-11-26T06:58:55.133Z,4.63
2022-11-26T07:01:26.727Z,5.18
2022-11-26T07:03:54.871Z,4.60
2022-11-26T07:06:24.034Z,5.63
2022-11-26T07:08:51.909Z,6.32
2022-11-26T07:11:19.633Z,6.45
2022-11-26T07:13:46.218Z,5.50
2022-11-26T07:16:13.104Z,5.70
2022-11-26T07:18:40.283Z,4.22
2022-11-26T07:21:10.116Z,4.40
2022-11-26T07:23:37.473Z,4.18
2022-11-26T07:26:05.410Z,4.38
2022-11-26T07:28:32.994Z,4.70
2022-11-26T07:31:00.787Z,3.30
2022-11-26T07:33:27.431Z,3.47
2022-11-26T07:35:53.992Z,3.30
2022-11-26T07:38:21.905Z,3.80
2022-11-26T07:40:48.431Z,3.72
2022-11-26T07:43:15.013Z,2.90
2022-11-26T07:45:41.768Z,3.60
2022-11-26T07:48:12.680Z,4.57
2022-11-26T07:50:43.822Z,3.05
2022-11-26T07:53:10.461Z,3.38
2022-11-26T07:55:39.215Z,3.30
2022-11-26T07:58:05.862Z,4.40
2022-11-26T08:00:32.608Z,3.92
2022-11-26T08:02:59.454Z,3.67
2022-11-26T08:05:26.066Z,3.42
2022-11-26T08:07:52.677Z,3.22
2022-11-26T08:10:19.340Z,2.90
2022-11-26T08:12:47.247Z,2.20
2022-11-26T08:15:13.877Z,2.90
2022-11-26T08:17:40.450Z,2.88
2022-11-26T08:20:08.072Z,3.47
2022-11-26T08:22:34.694Z,3.75
2022-11-26T08:25:01.297Z,4.43
2022-11-26T08:27:27.802Z,4.13
2022-11-26T08:29:56.233Z,4.03
2022-11-26T08:32:22.799Z,3.00
2022-11-26T08:34:49.359Z,3.08
2022-11-26T08:37:15.903Z,2.72
2022-11-26T08:39:42.427Z,3.25
2022-11-26T08:42:09.054Z,6.15
2022-11-26T08:44:35.687Z,4.95
2022-11-26T08:47:03.834Z,3.92
2022-11-26T08:49:30.476Z,2.97
2022-11-26T08:51:57.044Z,2.90
2022-11-26T08:54:23.914Z,2.80
2022-11-26T08:56:50.490Z,3.15
2022-11-26T08:59:17.227Z,2.45
2022-11-26T09:01:43.834Z,2.90
2022-11-26T09:04:11.854Z,2.60
2022-11-26T09:06:38.447Z,3.67
2022-11-26T09:09:06.296Z,3.38
2022-11-26T09:11:34.996Z,3.55
2022-11-26T09:14:02.165Z,3.38
2022-11-26T09:16:31.062Z,3.42
2022-11-26T09:19:00.375Z,3.67
2022-11-26T09:21:28.778Z,3.35
2022-11-26T09:23:55.755Z,4.00
2022-11-26T09:26:22.410Z,3.72
2022-11-26T09:28:49.443Z,3.72
2022-11-26T09:31:16.674Z,3.53
2022-11-26T09:33:43.895Z,3.53
2022-11-26T09:36:13.260Z,3.45
2022-11-26T09:38:41.297Z,4.65
2022-11-26T09:41:18.020Z,4.35
2022-11-26T09:44:08.262Z,4.53
2022-11-26T09:46:50.938Z,4.82
2022-11-26T09:49:31.280Z,4.38
2022-11-26T09:51:59.535Z,4.38
2022-11-26T09:54:29.827Z,4.88
2022-11-26T09:57:02.078Z,4.35
2022-11-26T09:59:30.245Z,3.60
2022-11-26T10:01:56.953Z,3.60
2022-11-26T10:04:26.846Z,3.92
2022-11-26T10:07:01.407Z,3.70
2022-11-26T10:09:55.742Z,3.83
2022-11-26T10:12:34.104Z,4.05
2022-11-26T10:15:15.628Z,3.55
2022-11-26T10:17:54.020Z,4.00
2022-11-26T10:21:04.176Z,3.60
2022-11-26T10:23:37.191Z,3.80
2022-11-26T10:26:12.001Z,3.45
2022-11-26T10:28:43.887Z,3.25
2022-11-26T10:33:50.823Z,3.13
2022-11-26T10:36:23.495Z,3.75
2022-11-26T10:38:50.053Z,3.53
2022-11-26T10:41:18.876Z,3.78
2022-11-26T10:43:45.448Z,4.20
2022-11-26T10:46:31.114Z,4.00
2022-11-26T10:49:16.375Z,3.75
2022-11-26T10:51:47.492Z,4.25
2022-11-26T10:54:23.886Z,4.20
2022-11-26T10:56:52.268Z,4.40
2022-11-26T10:59:24.246Z,4.07
2022-11-26T11:01:55.981Z,5.25
2022-11-26T11:04:29.417Z,4.20
2022-11-26T11:09:29.438Z,3.85
2022-11-26T11:12:15.678Z,3.72
2022-11-26T11:14:43.801Z,3.85
2022-11-26T11:17:33.919Z,3.80
2022-11-26T11:20:06.533Z,4.20
2022-11-26T11:22:33.183Z,3.88
2022-11-26T11:25:00.082Z,4.07
2022-11-26T11:27:37.462Z,3.72
2022-11-26T11:30:04.748Z,4.18
2022-11-26T11:32:36.890Z,4.60
2022-11-26T11:35:21.722Z,4.10
2022-11-26T11:37:49.978Z,4.65
2022-11-26T11:40:18.170Z,3.45
2022-11-26T11:42:51.031Z,4.10
2022-11-26T11:45:23.300Z,4.00
2022-11-26T11:47:51.747Z,4.30
2022-11-26T11:50:23.949Z,3.95
2022-11-26T11:53:11.866Z,4.22
2022-11-26T11:55:50.318Z,5.60
2022-11-26T11:58:37.184Z,3.90
2022-11-26T12:01:13.756Z,4.18
2022-11-26T12:03:56.595Z,3.72
2022-11-26T12:06:33.967Z,4.00
2022-11-26T12:09:10.880Z,3.83
2022-11-26T12:11:50.135Z,3.38
2022-11-26T12:14:22.940Z,3.67
2022-11-26T12:16:54.946Z,4.22
2022-11-26T12:19:29.155Z,3.75
2022-11-26T12:22:02.077Z,3.90
2022-11-26T12:24:36.675Z,4.07
2022-11-26T12:27:08.544Z,4.30
2022-11-26T12:32:13.228Z,4.30
2022-11-26T12:34:44.663Z,3.28
2022-11-26T12:37:17.521Z,3.20
2022-11-26T12:39:53.884Z,4.15
2022-11-26T12:42:28.742Z,3.60
2022-11-26T12:45:03.058Z,3.35
2022-11-26T12:47:34.535Z,3.92
2022-11-26T12:50:15.628Z,3.47
2022-11-26T12:52:50.256Z,4.27
2022-11-26T12:55:20.246Z,3.63
2022-11-26T12:57:51.145Z,3.50
2022-11-26T13:00:25.600Z,3.90
2022-11-26T13:02:54.194Z,3.75
2022-11-26T13:05:33.207Z,2.88
2022-11-26T13:08:18.461Z,3.35
2022-11-26T13:10:59.780Z,3.15
2022-11-26T13:13:36.750Z,3.50
2022-11-26T13:16:14.209Z,3.13
2022-11-26T13:18:45.010Z,2.92
2022-11-26T13:21:30.759Z,3.40
2022-11-26T13:24:18.684Z,3.75
2022-11-26T13:27:01.267Z,3.20
2022-11-26T13:29:52.782Z,3.50
2022-11-26T13:32:44.073Z,3.28
2022-11-26T13:35:23.938Z,2.90
2022-11-26T13:38:14.958Z,3.70
2022-11-26T13:41:05.549Z,2.88
2022-11-26T13:44:06.793Z,2.90
2022-11-26T13:46:36.475Z,3.45
2022-11-26T13:49:09.100Z,3.58
2022-11-26T13:51:43.277Z,3.38
2022-11-26T13:54:15.207Z,2.70
2022-11-26T13:59:16.568Z,3.28
2022-11-26T14:01:43.320Z,3.13
2022-11-26T14:04:12.891Z,2.78
2022-11-26T14:07:18.335Z,3.08
2022-11-26T14:09:47.956Z,3.25
2022-11-26T14:12:15.458Z,3.30
2022-11-26T14:14:43.213Z,3.10
2022-11-26T14:17:23.722Z,3.10
2022-11-26T14:20:16.332Z,2.80
2022-11-26T14:22:42.855Z,2.60
2022-11-26T14:25:14.170Z,3.42
2022-11-26T14:27:46.359Z,2.90
2022-11-26T14:30:24.462Z,3.92
2022-11-26T14:32:58.733Z,2.63
2022-11-26T14:35:34.053Z,2.28
2022-11-26T14:38:02.943Z,3.00
2022-11-26T14:40:31.051Z,2.63
2022-11-26T14:43:08.408Z,2.53
2022-11-26T14:45:35.798Z,3.85
2022-11-26T14:48:04.032Z,3.53
2022-11-26T14:50:33.712Z,2.70
2022-11-26T14:53:05.028Z,2.78
2022-11-26T14:55:32.736Z,2.90
2022-11-26T14:58:07.565Z,4.45
2022-11-26T15:00:35.930Z,3.03
2022-11-26T15:03:02.637Z,6.68
2022-11-26T15:05:32.371Z,5.57
2022-11-26T15:08:01.798Z,4.78
2022-11-26T15:10:33.380Z,5.45
2022-11-26T15:13:04.521Z,7.63
2022-11-26T15:15:31.161Z,5.63
2022-11-26T15:18:01.026Z,4.90
2022-11-26T15:20:27.960Z,4.43
2022-11-26T15:22:58.189Z,5.93
2022-11-26T15:25:27.082Z,3.30
2022-11-26T15:27:56.893Z,7.53
2022-11-26T15:30:25.812Z,7.90
2022-11-26T15:33:00.385Z,5.35
2022-11-26T15:35:28.016Z,3.67
2022-11-26T15:37:56.045Z,4.53
2022-11-26T15:40:24.764Z,4.60
2022-11-26T15:42:55.868Z,5.25
2022-11-26T15:45:28.071Z,5.40
2022-11-26T15:47:55.371Z,4.80
2022-11-26T15:50:28.366Z,3.63
2022-11-26T15:53:00.815Z,5.88
2022-11-26T15:55:32.529Z,4.35
2022-11-26T15:58:01.949Z,2.67
2022-11-26T16:00:34.171Z,2.80
2022-11-26T16:03:00.730Z,4.65
2022-11-26T16:05:33.350Z,4.30
2022-11-26T16:08:03.205Z,3.92
2022-11-26T16:10:31.507Z,3.60
2022-11-26T16:13:20.540Z,3.97
2022-11-26T16:15:50.781Z,2.85
2022-11-26T16:18:21.588Z,2.50
2022-11-26T16:20:48.504Z,2.85
2022-11-26T16:23:29.488Z,2.20
2022-11-26T16:26:14.739Z,3.10
2022-11-26T16:28:41.941Z,2.60
2022-11-26T16:31:08.826Z,2.00
2022-11-26T16:33:35.424Z,2.30
2022-11-26T16:36:02.202Z,2.78
2022-11-26T16:38:30.114Z,2.67
2022-11-26T16:40:56.585Z,2.60
2022-11-26T16:43:23.174Z,3.90
2022-11-26T16:45:52.985Z,2.80
2022-11-26T16:48:24.024Z,3.13
2022-11-26T16:50:51.443Z,3.28
2022-11-26T16:53:17.927Z,4.40
2022-11-26T16:55:46.030Z,4.78
2022-11-26T16:58:23.818Z,8.02
2022-11-26T17:00:50.469Z,6.88
2022-11-26T17:03:17.065Z,4.28
2022-11-26T17:05:43.665Z,2.85
2022-11-26T17:08:11.840Z,3.55
2022-11-26T17:10:39.201Z,4.72
2022-11-26T17:13:07.202Z,7.18
2022-11-26T17:15:34.332Z,4.95
2022-11-26T17:18:03.998Z,6.82
2022-11-26T17:20:30.981Z,7.55
2022-11-26T17:22:57.463Z,5.15
2022-11-26T17:25:25.171Z,3.55
2022-11-26T17:27:51.660Z,3.70
2022-11-26T17:30:22.469Z,3.25
2022-11-26T17:32:49.455Z,3.65
2022-11-26T17:35:16.175Z,2.45
2022-11-26T17:37:42.984Z,3.03
2022-11-26T17:40:16.031Z,2.47
2022-11-26T17:42:42.591Z,4.43
2022-11-26T17:45:10.252Z,4.03
2022-11-26T17:47:38.770Z,3.58
2022-11-26T17:50:06.831Z,2.88
2022-11-26T17:52:33.389Z,3.00
2022-11-26T17:54:59.864Z,3.53
2022-11-26T17:57:26.434Z,3.22
2022-11-26T17:59:52.943Z,3.10
2022-11-26T18:02:19.544Z,2.22
2022-11-26T18:04:47.419Z,2.33
2022-11-26T18:07:15.914Z,2.08
2022-11-26T18:09:42.801Z,3.10
2022-11-26T18:12:21.564Z,2.25
2022-11-26T18:14:51.232Z,3.25
2022-11-26T18:17:18.113Z,2.40
2022-11-26T18:19:44.974Z,3.25
2022-11-26T18:22:16.168Z,3.13
2022-11-26T18:24:42.769Z,2.80
2022-11-26T18:27:09.296Z,2.60
2022-11-26T18:29:35.864Z,4.20
2022-11-26T18:32:02.375Z,2.30
2022-11-26T18:34:28.919Z,3.00
2022-11-26T18:36:55.468Z,2.80
2022-11-26T18:39:23.652Z,2.42
2022-11-26T18:41:50.128Z,2.78
2022-11-26T18:44:16.778Z,2.83
2022-11-26T18:46:43.296Z,2.25
2022-11-26T18:49:09.871Z,2.97
2022-11-26T18:51:36.469Z,3.80
2022-11-26T18:54:03.150Z,3.72
2022-11-26T18:56:31.652Z,4.13
2022-11-26T18:58:58.199Z,4.32
2022-11-26T19:01:26.876Z,3.65
2022-11-26T19:03:53.857Z,4.00
2022-11-26T19:06:22.570Z,3.33
2022-11-26T19:08:50.332Z,2.65
2022-11-26T19:11:18.976Z,2.17
2022-11-26T19:13:47.831Z,2.20
2022-11-26T19:16:16.994Z,2.60
2022-11-26T19:18:45.016Z,3.60
2022-11-26T19:21:18.659Z,4.75
2022-11-26T19:23:45.462Z,1.63
2022-11-26T19:26:12.564Z,1.77
2022-11-26T19:28:39.484Z,3.00
2022-11-26T19:31:10.780Z,2.50
2022-11-26T19:33:38.449Z,2.33
2022-11-26T19:36:07.339Z,2.85
2022-11-26T19:38:35.509Z,2.40
2022-11-26T19:41:03.780Z,2.38
2022-11-26T19:43:33.771Z,2.45
2022-11-26T19:46:04.070Z,2.88
2022-11-26T19:48:32.759Z,2.75
2022-11-26T19:50:59.836Z,2.92
2022-11-26T19:53:26.376Z,3.70
2022-11-26T19:55:57.619Z,1.77
2022-11-26T19:58:24.471Z,2.47
2022-11-26T20:00:50.975Z,2.85
2022-11-26T20:03:17.553Z,5.00
2022-11-26T20:05:45.589Z,5.18
2022-11-26T20:08:12.324Z,6.00
2022-11-26T20:10:39.250Z,4.50
2022-11-26T20:13:07.399Z,4.28
2022-11-26T20:15:38.417Z,3.95
2022-11-26T20:18:05.663Z,3.42
2022-11-26T20:20:32.552Z,3.45
2022-11-26T20:23:00.565Z,2.70
2022-11-26T20:25:27.141Z,3.40
2022-11-26T20:27:54.113Z,3.20
2022-11-26T20:30:20.635Z,3.60
2022-11-26T20:32:47.522Z,2.65
2022-11-26T20:35:14.027Z,2.78
2022-11-26T20:37:40.616Z,2.80
2022-11-26T20:40:09.554Z,4.93
2022-11-26T20:42:37.079Z,4.95
2022-11-26T20:45:04.192Z,4.55
2022-11-26T20:47:31.046Z,4.15
2022-11-26T20:49:57.640Z,3.35
2022-11-26T20:52:24.218Z,2.53
2022-11-26T20:54:53.772Z,2.58
2022-11-26T20:57:22.104Z,3.47
2022-11-26T20:59:48.803Z,2.95
2022-11-26T21:02:15.561Z,7.57
2022-11-26T21:04:42.217Z,3.90
2022-11-26T21:07:08.800Z,3.47
2022-11-26T21:09:35.308Z,3.17
2022-11-26T21:12:01.912Z,3.10
2022-11-26T21:14:29.972Z,3.33
2022-11-26T21:16:56.600Z,4.28
2022-11-26T21:19:23.201Z,6.03
2022-11-26T21:21:49.767Z,10.32
2022-11-26T21:24:16.271Z,11.82
2022-11-26T21:26:42.869Z,7.72
2022-11-26T21:29:09.388Z,6.53
2022-11-26T21:31:37.326Z,6.05
2022-11-26T21:34:05.819Z,4.55
2022-11-26T21:36:34.298Z,4.53
2022-11-26T21:39:01.775Z,4.03
2022-11-26T21:41:28.817Z,5.03
2022-11-26T21:43:55.345Z,4.18
2022-11-26T21:46:24.003Z,3.28
2022-11-26T21:48:52.899Z,3.03
2022-11-26T21:51:20.177Z,4.10
2022-11-26T21:53:47.384Z,3.90
2022-11-26T21:56:16.727Z,4.80
2022-11-26T21:58:43.510Z,4.03
2022-11-26T22:01:11.317Z,3.40
2022-11-26T22:03:38.077Z,3.00
2022-11-26T22:06:06.843Z,3.15
2022-11-26T22:08:34.019Z,3.15
2022-11-26T22:11:00.969Z,3.92
2022-11-26T22:13:27.669Z,3.55
2022-11-26T22:15:54.286Z,3.75
2022-11-26T22:18:20.926Z,4.00
2022-11-26T22:20:51.451Z,4.40
2022-11-26T22:23:19.656Z,4.63
2022-11-26T22:25:46.733Z,4.50
2022-11-26T22:28:13.266Z,4.65
2022-11-26T22:30:39.770Z,5.07
2022-11-26T22:33:06.392Z,4.63
2022-11-26T22:35:32.943Z,4.85
2022-11-26T22:37:59.487Z,4.07
2022-11-26T22:40:27.853Z,3.92
2022-11-26T22:42:54.389Z,3.95
2022-11-26T22:45:21.015Z,4.57
2022-11-26T22:47:52.563Z,3.80
2022-11-26T22:52:45.938Z,5.28
2022-11-26T22:55:12.607Z,4.13
2022-11-26T22:57:40.619Z,7.78
2022-11-26T23:00:11.777Z,6.28
2022-11-26T23:02:38.454Z,6.05
2022-11-26T23:05:05.648Z,5.53
2022-11-26T23:07:32.461Z,4.25
2022-11-26T23:09:58.990Z,3.67
2022-11-26T23:12:25.607Z,4.57
2022-11-26T23:14:54.000Z,3.67
2022-11-26T23:17:21.042Z,3.63
2022-11-26T23:19:47.543Z,3.50
2022-11-26T23:22:14.135Z,3.70
2022-11-26T23:24:40.771Z,3.40
2022-11-26T23:27:07.318Z,4.32
2022-11-26T23:29:33.988Z,3.15
2022-11-26T23:32:02.098Z,4.18
2022-11-26T23:34:28.887Z,3.72
2022-11-26T23:36:55.460Z,4.20
2022-11-26T23:39:22.001Z,3.90
2022-11-26T23:41:48.788Z,3.97
2022-11-26T23:44:15.301Z,3.33
2022-11-26T23:46:41.962Z,3.95
2022-11-26T23:49:10.601Z,3.97
2022-11-26T23:51:37.280Z,5.45
2022-11-26T23:54:04.091Z,3.80
2022-11-26T23:56:32.705Z,4.60
2022-11-26T23:59:00.787Z,3.28
